Time;durP1;ratioP1;P1;durP2;ratioP2;P2;SDS_P1;SDS_P2;PMS_P1;PMS_P2;Temp;Humidity;BMP_temperature;BMP_pressure;BME280_temperature;BME280_humidity;BME280_pressure;Samples;Min_cycle;Max_cycle;Signal;HPM_P1;HPM_P2
2022/05/24 00:01:16;;;;;;;3.08;2.15;;;13.30;99.90;;;;;;4903826;29;20059;-80
2022/05/24 00:03:42;;;;;;;4.45;2.03;;;13.40;99.90;;;;;;4920569;29;20044;-79
2022/05/24 00:06:08;;;;;;;2.97;1.92;;;13.40;99.90;;;;;;4909342;29;20054;-79
2022/05/24 00:08:34;;;;;;;4.65;2.40;;;13.40;99.90;;;;;;4921315;29;20552;-81
2022/05/24 00:11:01;;;;;;;5.47;2.63;;;13.40;99.90;;;;;;4917298;29;20494;-80
2022/05/24 00:13:26;;;;;;;4.00;2.15;;;13.50;99.90;;;;;;4905442;29;20574;-80
2022/05/24 00:15:52;;;;;;;6.90;2.72;;;13.50;99.90;;;;;;4904353;29;20048;-81
2022/05/24 00:18:25;;;;;;;5.57;2.72;;;13.50;99.90;;;;;;4870991;29;20044;-80
2022/05/24 00:20:53;;;;;;;5.68;2.47;;;13.50;99.90;;;;;;4902621;29;20234;-80
2022/05/24 00:23:21;;;;;;;4.13;2.35;;;13.50;99.90;;;;;;4914754;29;20048;-80
2022/05/24 00:25:52;;;;;;;6.05;2.42;;;13.50;99.90;;;;;;4903202;29;20048;-79
2022/05/24 00:28:19;;;;;;;4.70;2.50;;;13.50;99.90;;;;;;4905731;29;20079;-79
2022/05/24 00:30:46;;;;;;;4.28;2.40;;;13.50;99.90;;;;;;4903044;29;20066;-80
2022/05/24 00:33:13;;;;;;;4.30;2.30;;;13.50;99.90;;;;;;4892905;29;20604;-80
2022/05/24 00:35:39;;;;;;;5.13;2.45;;;13.50;99.90;;;;;;4893824;29;20092;-78
2022/05/24 00:38:07;;;;;;;3.83;2.03;;;13.50;99.90;;;;;;4909603;29;20059;-80
2022/05/24 00:40:45;;;;;;;4.55;2.33;;;13.50;99.90;;;;;;4888044;29;20055;-79
2022/05/24 00:43:23;;;;;;;5.22;2.78;;;13.60;99.90;;;;;;4905494;29;20484;-80
2022/05/24 00:45:53;;;;;;;4.47;2.55;;;13.50;99.90;;;;;;4905704;29;20502;-80
2022/05/24 00:48:24;;;;;;;3.92;2.08;;;13.50;99.90;;;;;;4891046;29;20106;-80
2022/05/24 00:50:52;;;;;;;4.63;2.45;;;13.50;99.90;;;;;;4907974;29;20048;-79
2022/05/24 00:53:50;;;;;;;5.32;2.95;;;13.50;99.90;;;;;;4907048;29;20048;-80
2022/05/24 00:56:55;;;;;;;4.70;3.38;;;13.60;99.90;;;;;;4890908;29;20052;-79
2022/05/24 00:59:35;;;;;;;4.88;3.60;;;13.60;99.90;;;;;;4892544;29;20064;-80
2022/05/24 01:02:02;;;;;;;8.38;4.13;;;13.60;99.90;;;;;;4905012;29;20107;-80
2022/05/24 01:04:27;;;;;;;5.93;4.38;;;13.60;99.90;;;;;;4921401;29;20200;-79
2022/05/24 01:06:53;;;;;;;6.47;3.80;;;13.60;99.90;;;;;;4905313;29;20148;-79
2022/05/24 01:09:29;;;;;;;5.75;4.10;;;13.60;99.90;;;;;;4912097;29;20048;-79
2022/05/24 01:12:01;;;;;;;6.38;4.40;;;13.60;99.90;;;;;;4906164;29;20056;-80
2022/05/24 01:14:28;;;;;;;6.28;4.50;;;13.60;99.90;;;;;;4910904;29;20056;-79
2022/05/24 01:16:55;;;;;;;6.15;4.45;;;13.60;99.90;;;;;;4908364;29;20044;-79
2022/05/24 01:19:40;;;;;;;6.75;4.53;;;13.60;99.90;;;;;;4922717;29;20044;-80
2022/05/24 01:22:38;;;;;;;6.25;4.68;;;13.60;99.90;;;;;;4911281;29;20099;-81
2022/05/24 01:25:07;;;;;;;7.35;5.47;;;13.60;99.90;;;;;;4886571;29;20068;-79
2022/05/24 01:27:33;;;;;;;7.75;5.63;;;13.60;99.90;;;;;;4906796;29;20055;-79
2022/05/24 01:29:59;;;;;;;7.55;4.82;;;13.60;99.90;;;;;;4872323;29;20092;-81
2022/05/24 01:38:04;;;;;;;6.57;5.15;;;13.60;99.90;;;;;;4910776;29;20052;-80
2022/05/24 01:40:30;;;;;;;7.40;5.88;;;13.60;99.90;;;;;;4905689;29;20044;-80
2022/05/24 01:42:56;;;;;;;10.13;8.40;;;13.60;99.90;;;;;;4886396;29;20093;-79
2022/05/24 01:45:48;;;;;;;10.98;8.45;;;13.60;99.90;;;;;;4918958;29;20502;-80
2022/05/24 01:48:18;;;;;;;12.18;9.95;;;13.60;99.90;;;;;;4904230;29;20044;-80
2022/05/24 01:50:46;;;;;;;12.15;9.50;;;13.60;99.90;;;;;;4911068;29;20044;-79
2022/05/24 01:53:20;;;;;;;14.50;11.13;;;13.60;99.90;;;;;;4905694;29;20056;-78
2022/05/24 01:55:51;;;;;;;14.65;11.45;;;13.60;99.90;;;;;;4911138;29;20111;-79
2022/05/24 01:58:20;;;;;;;11.10;9.50;;;13.60;99.90;;;;;;4923323;29;20497;-78
2022/05/24 02:01:19;;;;;;;12.68;8.95;;;13.60;99.90;;;;;;4922197;29;20044;-79
2022/05/24 02:03:44;;;;;;;10.20;8.70;;;13.60;99.90;;;;;;4894809;29;20083;-78
2022/05/24 02:06:25;;;;;;;12.68;9.35;;;13.60;99.90;;;;;;4922325;29;20037;-78
2022/05/24 02:08:52;;;;;;;11.13;8.50;;;13.60;99.90;;;;;;4910511;29;20080;-78
2022/05/24 02:11:23;;;;;;;9.52;8.02;;;13.60;99.90;;;;;;4878171;29;20087;-78
2022/05/24 02:13:53;;;;;;;11.27;10.18;;;13.60;99.90;;;;;;4906226;29;20111;-79
2022/05/24 02:16:22;;;;;;;11.43;9.57;;;13.60;99.90;;;;;;4920271;29;20063;-78
2022/05/24 02:18:50;;;;;;;9.63;7.55;;;13.60;99.90;;;;;;4911053;29;20765;-79
2022/05/24 02:21:17;;;;;;;8.60;6.65;;;13.60;99.90;;;;;;4909442;29;20052;-80
2022/05/24 02:23:45;;;;;;;5.30;4.20;;;13.60;99.90;;;;;;4894613;29;20133;-80
2022/05/24 02:26:13;;;;;;;4.20;3.80;;;13.60;99.90;;;;;;4909843;29;20490;-80
2022/05/24 02:28:39;;;;;;;7.75;4.22;;;13.60;99.90;;;;;;4894830;29;20045;-80
2022/05/24 02:31:09;;;;;;;4.90;4.25;;;13.60;99.90;;;;;;4890519;29;20051;-80
2022/05/24 02:33:35;;;;;;;6.85;4.13;;;13.60;99.90;;;;;;4910263;29;20069;-80
2022/05/24 02:36:02;;;;;;;5.97;4.25;;;13.60;99.90;;;;;;4905528;29;20071;-78
2022/05/24 02:38:28;;;;;;;6.60;3.88;;;13.60;99.90;;;;;;4922453;29;20507;-79
2022/05/24 02:43:39;;;;;;;6.35;4.38;;;13.60;99.90;;;;;;4895611;29;20087;-80
2022/05/24 02:46:06;;;;;;;6.50;4.28;;;13.60;99.90;;;;;;4894440;29;20058;-80
2022/05/24 02:48:31;;;;;;;7.95;3.95;;;13.60;99.90;;;;;;4894927;29;20055;-78
2022/05/24 02:50:57;;;;;;;6.25;3.92;;;13.60;99.90;;;;;;4909238;29;20103;-79
2022/05/24 02:53:25;;;;;;;6.63;4.28;;;13.70;99.90;;;;;;4919599;29;20245;-78
2022/05/24 02:55:51;;;;;;;7.72;4.70;;;13.70;99.90;;;;;;4910052;29;20047;-79
2022/05/24 02:58:17;;;;;;;7.05;4.70;;;13.60;99.90;;;;;;4911047;29;20047;-79
2022/05/24 03:00:44;;;;;;;6.25;4.28;;;13.60;99.90;;;;;;4911732;29;20051;-79
2022/05/24 03:03:10;;;;;;;6.85;4.95;;;13.60;99.90;;;;;;4903412;29;20131;-79
2022/05/24 03:05:35;;;;;;;7.95;5.97;;;13.60;99.90;;;;;;4910597;29;20103;-79
2022/05/24 03:10:46;;;;;;;6.05;3.75;;;13.60;99.90;;;;;;4898158;29;20047;-78
2022/05/24 03:15:56;;;;;;;7.25;3.10;;;13.50;99.90;;;;;;4910828;29;20052;-78
2022/05/24 03:18:23;;;;;;;4.82;2.42;;;13.50;99.90;;;;;;4910865;29;20047;-78
2022/05/24 03:20:49;;;;;;;5.07;2.50;;;13.40;99.90;;;;;;4924165;29;20055;-79
2022/05/24 03:23:16;;;;;;;6.65;3.03;;;13.40;99.90;;;;;;4893755;29;20052;-79
2022/05/24 03:25:42;;;;;;;5.82;2.65;;;13.40;99.90;;;;;;4889841;29;20055;-79
2022/05/24 03:28:09;;;;;;;6.93;2.67;;;13.40;99.90;;;;;;4908715;29;20048;-79
2022/05/24 03:30:41;;;;;;;6.32;3.17;;;13.40;99.90;;;;;;4857240;29;20084;-79
2022/05/24 03:33:07;;;;;;;5.55;2.80;;;13.40;99.90;;;;;;4910839;29;20419;-79
2022/05/24 03:35:33;;;;;;;4.18;2.38;;;13.40;99.90;;;;;;4904492;29;20047;-79
2022/05/24 03:37:58;;;;;;;7.55;2.60;;;13.30;99.90;;;;;;4901471;29;20521;-79
2022/05/24 03:40:24;;;;;;;3.60;2.30;;;13.40;99.90;;;;;;4898547;29;20048;-79
2022/05/24 03:42:52;;;;;;;6.00;1.90;;;13.30;99.90;;;;;;4893321;29;20057;-79
2022/05/24 03:45:18;;;;;;;2.92;1.75;;;13.30;99.90;;;;;;4893201;29;20429;-79
2022/05/24 03:47:44;;;;;;;5.05;2.10;;;13.30;99.90;;;;;;4903847;29;20142;-79
2022/05/24 03:50:10;;;;;;;4.40;1.80;;;13.30;99.90;;;;;;4902096;29;21003;-79
2022/05/24 03:52:36;;;;;;;5.63;2.13;;;13.30;99.90;;;;;;4906759;29;20067;-79
2022/05/24 03:55:03;;;;;;;4.10;1.70;;;13.30;99.90;;;;;;4917592;29;20491;-79
2022/05/24 04:00:18;;;;;;;3.85;2.60;;;13.30;99.90;;;;;;4906374;29;20080;-79
2022/05/24 04:02:44;;;;;;;6.25;2.75;;;13.30;99.90;;;;;;4911182;29;20126;-79
2022/05/24 04:05:11;;;;;;;6.18;3.38;;;13.40;99.90;;;;;;4910126;29;20062;-80
2022/05/24 04:07:37;;;;;;;7.38;3.83;;;13.40;99.90;;;;;;4903376;29;20509;-79
2022/05/24 04:10:04;;;;;;;6.45;3.63;;;13.40;99.90;;;;;;4905326;29;20412;-79
2022/05/24 04:12:30;;;;;;;7.32;4.18;;;13.40;99.90;;;;;;4910227;29;20123;-78
2022/05/24 04:14:55;;;;;;;5.68;3.95;;;13.50;99.90;;;;;;4917224;29;20135;-79
2022/05/24 04:17:21;;;;;;;4.78;3.80;;;13.50;99.90;;;;;;4875623;29;20044;-79
2022/05/24 04:19:47;;;;;;;5.68;3.60;;;13.50;99.90;;;;;;4906631;29;20572;-79
2022/05/24 04:22:12;;;;;;;7.65;3.90;;;13.50;99.90;;;;;;4912740;29;20530;-80
2022/05/24 04:24:38;;;;;;;8.52;4.55;;;13.50;99.90;;;;;;4913928;29;20086;-79
2022/05/24 04:27:05;;;;;;;8.45;4.93;;;13.60;99.90;;;;;;4913949;29;20066;-79
2022/05/24 04:29:31;;;;;;;6.97;4.82;;;13.60;99.90;;;;;;4891227;29;20063;-79
2022/05/24 04:31:56;;;;;;;8.27;4.90;;;13.60;99.90;;;;;;4895527;29;20052;-79
2022/05/24 04:34:22;;;;;;;6.78;4.28;;;13.60;99.90;;;;;;4922755;29;20512;-79
2022/05/24 04:36:48;;;;;;;9.85;5.60;;;13.50;99.90;;;;;;4904508;29;20044;-79
2022/05/24 04:39:15;;;;;;;8.27;5.43;;;13.60;99.90;;;;;;4893916;29;20111;-80
2022/05/24 04:44:25;;;;;;;9.07;5.45;;;13.60;99.90;;;;;;4910972;29;20143;-79
2022/05/24 04:47:09;;;;;;;9.25;5.40;;;13.50;99.90;;;;;;4922644;29;20168;-80
2022/05/24 04:49:40;;;;;;;9.98;5.57;;;13.50;99.90;;;;;;4881701;29;20044;-79
2022/05/24 04:52:08;;;;;;;11.98;5.63;;;13.60;99.90;;;;;;4911184;29;20048;-79
2022/05/24 04:54:34;;;;;;;10.75;6.30;;;13.60;99.90;;;;;;4909425;29;20052;-78
2022/05/24 04:57:01;;;;;;;13.82;5.53;;;13.60;99.90;;;;;;4921644;29;20072;-80
2022/05/24 04:59:27;;;;;;;10.60;6.03;;;13.60;99.90;;;;;;4895945;29;20040;-80
2022/05/24 05:01:52;;;;;;;10.23;5.97;;;13.70;99.90;;;;;;4923734;29;20107;-78
2022/05/24 05:04:19;;;;;;;14.30;6.65;;;13.80;99.90;;;;;;4911706;29;20341;-78
2022/05/24 05:06:46;;;;;;;12.35;6.63;;;13.80;99.90;;;;;;4924222;29;20083;-78
2022/05/24 05:09:12;;;;;;;11.25;5.90;;;13.90;99.90;;;;;;4904387;29;20087;-79
2022/05/24 05:11:38;;;;;;;9.93;5.80;;;13.90;99.90;;;;;;4911529;29;20056;-77
2022/05/24 05:14:04;;;;;;;12.48;6.00;;;13.90;99.90;;;;;;4923755;29;20068;-79
2022/05/24 05:16:30;;;;;;;18.33;6.70;;;13.90;99.90;;;;;;4911223;29;20800;-78
2022/05/24 05:18:56;;;;;;;12.52;6.07;;;13.90;99.90;;;;;;4923116;29;20938;-78
2022/05/24 05:21:22;;;;;;;12.38;5.90;;;13.90;99.90;;;;;;4909981;29;20071;-78
2022/05/24 05:23:48;;;;;;;10.98;5.22;;;13.90;99.90;;;;;;4904450;29;20159;-78
2022/05/24 05:26:14;;;;;;;8.68;3.72;;;13.90;99.90;;;;;;4889208;29;20406;-79
2022/05/24 05:28:41;;;;;;;8.77;3.80;;;13.90;99.90;;;;;;4912382;29;20051;-78
2022/05/24 05:31:16;;;;;;;9.02;3.70;;;13.80;99.90;;;;;;4892316;29;20489;-78
2022/05/24 05:33:47;;;;;;;9.55;3.40;;;13.80;99.90;;;;;;4910887;29;20052;-80
2022/05/24 05:36:13;;;;;;;11.45;3.25;;;13.70;99.90;;;;;;4879396;29;20048;-80
2022/05/24 05:38:45;;;;;;;11.82;2.75;;;13.70;99.90;;;;;;4904459;29;20502;-80
2022/05/24 05:41:19;;;;;;;9.45;2.45;;;13.60;99.90;;;;;;4912105;29;20067;-80
2022/05/24 05:43:45;;;;;;;6.50;1.80;;;13.60;99.90;;;;;;4906829;29;20044;-80
2022/05/24 05:46:12;;;;;;;5.68;1.90;;;14.40;99.90;;;;;;4906778;29;20123;-79
2022/05/24 05:48:38;;;;;;;3.97;1.50;;;13.50;99.90;;;;;;4893917;29;20120;-80
2022/05/24 05:51:07;;;;;;;4.57;1.60;;;13.50;99.90;;;;;;4919733;29;20048;-78
2022/05/24 05:53:33;;;;;;;4.90;1.33;;;13.40;99.90;;;;;;4902932;29;20048;-80
2022/05/24 05:55:59;;;;;;;4.53;1.50;;;13.40;99.90;;;;;;4910411;29;20143;-80
2022/05/24 05:58:25;;;;;;;4.07;1.35;;;13.40;99.90;;;;;;4905606;29;20047;-80
2022/05/24 06:00:51;;;;;;;3.55;1.38;;;13.40;99.90;;;;;;4893701;29;20064;-79
2022/05/24 06:03:17;;;;;;;4.30;1.50;;;13.50;99.90;;;;;;4893577;29;20052;-79
2022/05/24 06:05:44;;;;;;;4.45;1.17;;;13.50;99.90;;;;;;4899150;29;20521;-78
2022/05/24 06:08:10;;;;;;;4.55;1.50;;;13.40;99.90;;;;;;4895895;29;20052;-80
2022/05/24 06:10:36;;;;;;;4.80;1.60;;;13.40;99.90;;;;;;4902323;29;20815;-79
2022/05/24 06:13:05;;;;;;;5.38;1.77;;;13.40;99.90;;;;;;4911501;29;20088;-80
2022/05/24 06:15:33;;;;;;;5.90;2.17;;;13.50;99.90;;;;;;4886177;29;20079;-80
2022/05/24 06:17:59;;;;;;;5.28;2.00;;;13.50;99.90;;;;;;4907088;29;20454;-80
2022/05/24 06:20:28;;;;;;;4.53;2.15;;;13.50;99.90;;;;;;4890028;29;20044;-80
2022/05/24 06:22:57;;;;;;;5.80;2.70;;;13.60;99.90;;;;;;4896610;29;20048;-79
2022/05/24 06:25:28;;;;;;;5.93;2.50;;;12.70;99.90;;;;;;4907517;29;20074;-75
2022/05/24 06:27:55;;;;;;;6.13;2.47;;;13.60;99.90;;;;;;4909663;29;20067;-79
2022/05/24 06:30:22;;;;;;;5.95;2.10;;;13.70;99.90;;;;;;4895442;29;20177;-78
2022/05/24 06:32:49;;;;;;;7.55;2.63;;;13.70;99.90;;;;;;4906715;29;20345;-78
2022/05/24 06:35:16;;;;;;;7.80;2.35;;;13.80;99.90;;;;;;4911414;29;20055;-76
2022/05/24 06:37:42;;;;;;;7.63;2.83;;;13.90;99.90;;;;;;4904845;29;20048;-79
2022/05/24 06:40:11;;;;;;;5.75;2.35;;;13.90;99.90;;;;;;4878680;29;20054;-78
2022/05/24 06:42:36;;;;;;;5.78;2.08;;;13.90;99.90;;;;;;4903660;29;20079;-78
2022/05/24 06:45:03;;;;;;;5.70;2.28;;;14.00;99.90;;;;;;4871030;29;20052;-78
2022/05/24 06:47:29;;;;;;;8.15;2.50;;;14.10;99.90;;;;;;4921047;29;20056;-78
2022/05/24 06:49:55;;;;;;;5.38;2.17;;;14.00;99.90;;;;;;4893638;29;20087;-78
2022/05/24 06:52:22;;;;;;;4.80;2.30;;;14.00;99.90;;;;;;4900599;29;20040;-79
2022/05/24 06:54:47;;;;;;;5.53;2.03;;;14.00;99.90;;;;;;4891082;29;20067;-78
2022/05/24 06:57:13;;;;;;;7.32;1.90;;;13.90;99.90;;;;;;4908985;29;20037;-78
2022/05/24 07:02:26;;;;;;;2.83;1.75;;;13.90;99.90;;;;;;4909033;29;20080;-78
2022/05/24 07:05:07;;;;;;;4.20;1.73;;;13.90;99.90;;;;;;4874008;29;20150;-78
2022/05/24 07:07:34;;;;;;;3.25;1.60;;;13.90;99.90;;;;;;4902136;29;20040;-78
2022/05/24 07:10:01;;;;;;;4.82;1.75;;;13.90;99.90;;;;;;4889522;29;20801;-78
2022/05/24 07:12:28;;;;;;;4.93;1.70;;;13.90;99.90;;;;;;4909794;29;20048;-80
2022/05/24 07:14:56;;;;;;;4.43;1.50;;;13.90;99.90;;;;;;4875050;29;20156;-82
2022/05/24 07:17:22;;;;;;;5.35;2.25;;;13.90;99.90;;;;;;4888261;29;20076;-78
2022/05/24 07:19:49;;;;;;;4.10;1.75;;;13.90;99.90;;;;;;4906717;29;20087;-76
2022/05/24 07:22:15;;;;;;;4.38;1.75;;;13.90;99.90;;;;;;4918008;29;20538;-78
2022/05/24 07:24:41;;;;;;;6.07;2.30;;;14.10;99.90;;;;;;4900768;29;20155;-74
2022/05/24 07:27:12;;;;;;;3.60;2.65;;;14.30;99.90;;;;;;4907440;29;20077;-75
2022/05/24 07:29:38;;;;;;;4.50;1.98;;;14.30;99.90;;;;;;4902298;29;20055;-75
2022/05/24 07:32:05;;;;;;;5.13;1.90;;;14.30;99.90;;;;;;4902594;29;20052;-75
2022/05/24 07:34:32;;;;;;;3.95;1.73;;;14.30;99.90;;;;;;4905353;29;20044;-75
2022/05/24 07:37:00;;;;;;;3.42;2.30;;;14.30;99.90;;;;;;4887549;29;20136;-75
2022/05/24 07:39:26;;;;;;;5.20;1.65;;;14.30;99.90;;;;;;4917392;29;20055;-75
2022/05/24 07:47:22;;;;;;;5.75;2.13;;;14.30;99.90;;;;;;4909804;29;20052;-75
2022/05/24 07:49:48;;;;;;;6.32;2.50;;;14.30;99.90;;;;;;4888507;29;20051;-78
2022/05/24 07:52:14;;;;;;;4.28;2.20;;;14.30;99.90;;;;;;4923145;29;20055;-77
2022/05/24 07:54:40;;;;;;;5.72;2.15;;;14.20;99.90;;;;;;4872856;29;20536;-77
2022/05/24 07:57:10;;;;;;;4.97;2.22;;;14.20;99.90;;;;;;4891404;29;20908;-76
2022/05/24 07:59:37;;;;;;;3.95;2.35;;;14.20;99.90;;;;;;4921329;29;20079;-76
2022/05/24 08:02:05;;;;;;;4.47;2.35;;;14.20;99.90;;;;;;4918659;29;20053;-77
2022/05/24 08:04:31;;;;;;;3.25;2.20;;;14.10;99.90;;;;;;4910904;29;20052;-77
2022/05/24 08:06:56;;;;;;;4.10;1.95;;;14.10;99.90;;;;;;4905006;29;20162;-78
2022/05/24 08:09:22;;;;;;;4.35;1.92;;;14.00;99.90;;;;;;4890625;29;20047;-77
2022/05/24 08:11:48;;;;;;;4.00;2.00;;;14.00;99.90;;;;;;4921069;29;20225;-79
2022/05/24 08:14:14;;;;;;;5.53;1.95;;;13.90;99.90;;;;;;4894253;29;20055;-77
2022/05/24 08:16:39;;;;;;;4.45;2.30;;;13.80;99.90;;;;;;4920357;29;20406;-78
2022/05/24 08:19:05;;;;;;;6.70;2.40;;;13.80;99.90;;;;;;4874899;29;20048;-77
2022/05/24 08:21:31;;;;;;;4.18;2.15;;;13.80;99.90;;;;;;4909771;29;20048;-78
2022/05/24 08:23:57;;;;;;;6.40;2.38;;;13.80;99.90;;;;;;4910523;29;20090;-77
2022/05/24 08:26:23;;;;;;;4.38;2.00;;;13.80;99.90;;;;;;4905865;29;20053;-78
2022/05/24 08:28:50;;;;;;;4.43;1.73;;;13.80;99.90;;;;;;4895522;29;20052;-79
2022/05/24 08:31:17;;;;;;;3.33;1.70;;;13.80;99.90;;;;;;4911646;29;20047;-78
2022/05/24 08:33:44;;;;;;;6.75;1.75;;;13.90;99.90;;;;;;4911257;29;20476;-78
2022/05/24 08:36:11;;;;;;;4.65;1.85;;;13.90;99.90;;;;;;4919116;29;20075;-78
2022/05/24 08:38:38;;;;;;;3.15;1.80;;;13.90;99.90;;;;;;4876299;29;20040;-78
2022/05/24 08:41:09;;;;;;;4.20;2.30;;;13.90;99.90;;;;;;4910030;29;20078;-78
2022/05/24 08:43:59;;;;;;;6.38;2.33;;;13.90;99.90;;;;;;4909430;29;20502;-78
2022/05/24 08:49:21;;;;;;;3.60;2.10;;;14.00;99.90;;;;;;4904961;29;20135;-79
2022/05/24 08:51:56;;;;;;;4.38;2.22;;;14.20;99.90;;;;;;4922706;29;20123;-78
2022/05/24 08:54:32;;;;;;;3.78;2.08;;;14.30;99.90;;;;;;4906097;29;20055;-79
2022/05/24 08:57:08;;;;;;;4.97;1.98;;;14.40;99.90;;;;;;4911975;29;20056;-78
2022/05/24 08:59:40;;;;;;;6.32;2.10;;;14.50;99.90;;;;;;4894578;29;20062;-78
2022/05/24 09:02:08;;;;;;;5.80;2.35;;;14.60;99.90;;;;;;4909592;29;20067;-78
2022/05/24 09:04:35;;;;;;;3.05;2.42;;;14.70;99.90;;;;;;4906899;29;20045;-78
2022/05/24 09:07:39;;;;;;;3.47;2.08;;;14.80;99.90;;;;;;4912543;29;20130;-78
2022/05/24 09:10:34;;;;;;;4.25;2.13;;;14.80;99.90;;;;;;4909819;29;20051;-78
2022/05/24 09:13:44;;;;;;;6.10;1.90;;;14.80;99.90;;;;;;4912663;29;20203;-78
2022/05/24 09:16:13;;;;;;;4.60;1.95;;;14.70;99.90;;;;;;4889758;29;20075;-78
2022/05/24 09:19:10;;;;;;;4.28;2.10;;;14.50;99.90;;;;;;4890736;29;20052;-78
2022/05/24 09:21:39;;;;;;;3.60;1.90;;;14.40;99.90;;;;;;4889542;29;20118;-77
2022/05/24 09:24:16;;;;;;;3.47;1.60;;;14.20;99.90;;;;;;4864357;29;20044;-76
2022/05/24 09:27:22;;;;;;;3.70;1.60;;;14.00;99.90;;;;;;4907247;29;20044;-77
2022/05/24 09:29:51;;;;;;;6.70;1.83;;;13.80;99.90;;;;;;4890667;29;21033;-77
2022/05/24 09:32:17;;;;;;;5.28;1.95;;;13.70;99.90;;;;;;4909100;29;20052;-79
2022/05/24 09:34:43;;;;;;;3.55;2.00;;;13.70;99.90;;;;;;4881094;29;20060;-77
2022/05/24 09:37:26;;;;;;;6.18;2.50;;;13.70;99.90;;;;;;4908308;29;20048;-78
2022/05/24 09:40:15;;;;;;;4.75;2.55;;;13.70;99.90;;;;;;4904085;29;20396;-77
2022/05/24 09:42:41;;;;;;;4.85;2.78;;;13.60;99.90;;;;;;4888801;29;20067;-76
2022/05/24 09:45:22;;;;;;;5.97;3.80;;;13.60;99.90;;;;;;4904123;29;20060;-75
2022/05/24 09:47:48;;;;;;;4.97;3.47;;;13.70;99.90;;;;;;4902809;29;20163;-76
2022/05/24 09:50:25;;;;;;;4.35;3.83;;;13.70;99.90;;;;;;4919200;29;20167;-76
2022/05/24 09:53:06;;;;;;;5.35;4.18;;;13.70;99.90;;;;;;4906873;29;20052;-75
2022/05/24 09:55:38;;;;;;;5.25;3.17;;;13.90;99.90;;;;;;4919640;29;20073;-77
2022/05/24 09:58:25;;;;;;;5.47;1.95;;;13.90;99.90;;;;;;4921116;29;20044;-78
2022/05/24 10:00:56;;;;;;;3.78;1.08;;;13.90;99.90;;;;;;4909042;29;20052;-78
2022/05/24 10:03:30;;;;;;;2.40;0.60;;;13.90;99.90;;;;;;4926206;29;20052;-82
2022/05/24 10:06:03;;;;;;;0.90;0.70;;;13.80;99.90;;;;;;4905241;29;20087;-83
2022/05/24 10:08:35;;;;;;;2.15;0.70;;;13.70;99.90;;;;;;4907290;29;20131;-78
2022/05/24 10:11:02;;;;;;;3.28;0.73;;;13.60;99.90;;;;;;4903469;29;20493;-79
2022/05/24 10:13:50;;;;;;;1.85;0.90;;;13.60;99.90;;;;;;4920442;29;20127;-78
2022/05/24 10:16:35;;;;;;;3.70;1.17;;;13.70;99.90;;;;;;4889110;29;20041;-77
2022/05/24 10:19:28;;;;;;;4.63;1.40;;;13.90;99.90;;;;;;4919992;29;20048;-76
2022/05/24 10:22:03;;;;;;;2.95;1.20;;;14.00;99.90;;;;;;4908742;29;20056;-76
2022/05/24 10:25:08;;;;;;;3.10;1.47;;;14.10;99.90;;;;;;4886382;29;20108;-80
2022/05/24 10:28:07;;;;;;;3.13;1.20;;;14.40;99.90;;;;;;4909128;29;20060;-80
2022/05/24 10:31:07;;;;;;;2.35;1.33;;;14.70;99.90;;;;;;4918107;29;20048;-75
2022/05/24 10:40:07;;;;;;;3.10;0.98;;;15.20;99.90;;;;;;4908728;29;20044;-76
2022/05/24 10:42:55;;;;;;;3.20;0.90;;;15.00;99.90;;;;;;4887594;29;20134;-77
2022/05/24 10:45:49;;;;;;;2.65;1.00;;;14.80;99.90;;;;;;4903072;29;20635;-77
2022/05/24 10:48:13;;;;;;;1.92;1.25;;;14.60;99.90;;;;;;4918015;29;20414;-76
2022/05/24 10:50:52;;;;;;;3.28;1.20;;;14.50;99.90;;;;;;4903923;29;20064;-77
2022/05/24 10:53:27;;;;;;;4.30;1.25;;;14.50;99.90;;;;;;4911300;29;20091;-76
2022/05/24 10:56:00;;;;;;;4.47;1.30;;;14.40;99.90;;;;;;4903440;29;20059;-78
2022/05/24 10:58:30;;;;;;;4.63;1.40;;;14.40;99.90;;;;;;4910782;29;20067;-76
2022/05/24 11:01:13;;;;;;;2.33;1.10;;;14.40;99.90;;;;;;4918184;29;20044;-77
2022/05/24 11:03:45;;;;;;;4.43;1.02;;;14.40;99.90;;;;;;4902198;29;20049;-80
2022/05/24 11:06:31;;;;;;;3.22;1.33;;;14.50;99.90;;;;;;4908705;29;20078;-75
2022/05/24 11:09:02;;;;;;;;;;;14.80;99.90;;;;;;4901059;29;20056;-76
2022/05/24 11:11:41;;;;;;;6.35;1.17;;;15.00;99.90;;;;;;4918996;29;19928;-76
2022/05/24 11:14:34;;;;;;;2.78;1.30;;;15.10;99.90;;;;;;4886798;29;20433;-78
2022/05/24 11:17:01;;;;;;;4.13;1.27;;;15.00;99.90;;;;;;4906969;29;20056;-77
2022/05/24 11:19:36;;;;;;;4.10;1.13;;;14.90;99.90;;;;;;4899987;29;20056;-77
2022/05/24 11:22:27;;;;;;;2.97;1.35;;;14.70;99.90;;;;;;4902015;29;20056;-78
2022/05/24 11:25:13;;;;;;;5.40;1.50;;;14.50;99.90;;;;;;4915021;29;20561;-77
2022/05/24 11:27:40;;;;;;;5.40;1.40;;;14.40;99.90;;;;;;4888446;29;20090;-80
2022/05/24 11:30:14;;;;;;;4.95;1.38;;;14.40;99.90;;;;;;4902033;29;20086;-78
2022/05/24 11:32:53;;;;;;;3.95;1.27;;;14.40;99.90;;;;;;4903228;29;20063;-82
2022/05/24 11:35:18;;;;;;;4.03;1.38;;;14.50;99.90;;;;;;4910550;29;20056;-78
2022/05/24 11:37:46;;;;;;;3.67;1.10;;;14.90;99.90;;;;;;4909192;29;20048;-77
2022/05/24 11:40:30;;;;;;;4.53;1.25;;;15.00;99.90;;;;;;4909845;29;20049;-78
2022/05/24 11:43:05;;;;;;;5.68;1.30;;;15.20;99.90;;;;;;4902169;29;20449;-78
2022/05/24 11:45:37;;;;;;;3.30;1.00;;;15.50;99.90;;;;;;4889031;29;20053;-77
2022/05/24 11:48:06;;;;;;;3.45;1.15;;;15.80;99.90;;;;;;4915226;29;20048;-77
2022/05/24 11:50:31;;;;;;;3.70;1.10;;;16.10;99.90;;;;;;4909302;29;20048;-77
2022/05/24 11:53:03;;;;;;;4.15;1.00;;;16.10;99.90;;;;;;4916954;29;20173;-76
2022/05/24 11:55:55;;;;;;;4.22;1.20;;;15.90;99.90;;;;;;4918309;29;20087;-77
2022/05/24 11:58:41;;;;;;;4.32;1.60;;;15.60;99.90;;;;;;4920264;29;20044;-77
2022/05/24 12:01:16;;;;;;;3.08;1.30;;;15.50;99.90;;;;;;4904264;29;20122;-77
2022/05/24 12:10:16;;;;;;;5.80;1.80;;;15.60;99.90;;;;;;4923616;29;20051;-78
2022/05/24 12:12:56;;;;;;;3.65;1.10;;;15.90;99.90;;;;;;4921258;29;20064;-79
2022/05/24 12:15:21;;;;;;;3.05;1.35;;;16.30;99.90;;;;;;4908508;29;20072;-79
2022/05/24 12:18:11;;;;;;;2.90;1.25;;;16.60;99.90;;;;;;4917293;29;20048;-79
2022/05/24 12:20:37;;;;;;;3.67;1.20;;;16.60;99.90;;;;;;4900987;29;20131;-78
2022/05/24 12:23:14;;;;;;;4.25;1.38;;;16.30;99.90;;;;;;4917041;29;20208;-78
2022/05/24 12:26:12;;;;;;;3.28;1.35;;;16.30;99.90;;;;;;4901880;29;20494;-78
2022/05/24 12:28:37;;;;;;;2.88;1.17;;;16.20;99.90;;;;;;4917862;29;20446;-77
2022/05/24 12:31:21;;;;;;;4.60;1.23;;;16.30;99.90;;;;;;4908472;29;20044;-78
2022/05/24 12:33:55;;;;;;;7.65;1.52;;;16.50;99.90;;;;;;4917394;29;20059;-79
2022/05/24 12:36:32;;;;;;;5.68;1.60;;;16.70;99.90;;;;;;4910694;29;20131;-79
2022/05/24 12:39:07;;;;;;;3.58;1.48;;;16.80;99.90;;;;;;4913125;29;20079;-78
2022/05/24 12:41:38;;;;;;;5.25;1.60;;;17.00;99.90;;;;;;4905815;29;20446;-79
2022/05/24 12:44:12;;;;;;;4.38;1.40;;;17.00;99.90;;;;;;4920902;29;20060;-79
2022/05/24 12:46:39;;;;;;;5.10;1.23;;;17.20;99.90;;;;;;4905295;29;20063;-78
2022/05/24 12:49:19;;;;;;;3.75;1.20;;;17.40;99.90;;;;;;4904985;29;20066;-79
2022/05/24 12:51:45;;;;;;;3.72;1.38;;;17.30;99.90;;;;;;4890449;29;20139;-80
2022/05/24 12:54:16;;;;;;;2.67;1.17;;;17.50;99.90;;;;;;4888503;29;20096;-79
2022/05/24 12:57:00;;;;;;;4.72;1.55;;;17.60;99.90;;;;;;4906360;29;20040;-79
2022/05/24 12:59:34;;;;;;;4.25;1.48;;;17.60;99.90;;;;;;4921422;29;20084;-79
2022/05/24 13:02:18;;;;;;;3.78;1.02;;;17.60;99.90;;;;;;4903715;29;20498;-79
2022/05/24 13:04:45;;;;;;;3.47;1.15;;;17.80;99.90;;;;;;4912064;29;20108;-79
2022/05/24 13:07:35;;;;;;;4.40;1.45;;;18.10;99.90;;;;;;4920332;29;20080;-78
2022/05/24 13:10:03;;;;;;;4.03;1.73;;;18.00;99.90;;;;;;4906535;29;20044;-79
2022/05/24 13:12:29;;;;;;;4.50;1.30;;;18.10;99.90;;;;;;4895873;29;20082;-79
2022/05/24 13:14:59;;;;;;;3.20;1.38;;;18.30;99.90;;;;;;4890383;29;20064;-78
2022/05/24 13:17:29;;;;;;;2.58;1.10;;;18.20;99.90;;;;;;4921795;29;20059;-78
2022/05/24 13:20:03;;;;;;;7.10;1.58;;;17.80;99.90;;;;;;4911260;29;20057;-77
2022/05/24 13:22:45;;;;;;;3.13;1.20;;;17.60;99.90;;;;;;4911436;29;20044;-77
2022/05/24 13:25:16;;;;;;;3.72;1.20;;;17.70;99.90;;;;;;4904092;29;20068;-77
2022/05/24 13:27:53;;;;;;;3.83;1.50;;;17.30;99.90;;;;;;4920490;29;20044;-78
2022/05/24 13:33:35;;;;;;;5.57;1.70;;;16.40;99.90;;;;;;4911109;29;20048;-77
2022/05/24 13:36:26;;;;;;;4.88;1.70;;;16.30;99.90;;;;;;4911274;29;20466;-78
2022/05/24 13:39:08;;;;;;;4.65;2.00;;;16.20;99.90;;;;;;4904390;29;20075;-79
2022/05/24 13:41:41;;;;;;;5.65;2.20;;;16.60;99.90;;;;;;4888810;29;20049;-81
2022/05/24 13:44:34;;;;;;;5.32;2.40;;;16.50;99.90;;;;;;4904211;29;20065;-78
2022/05/24 13:46:59;;;;;;;7.13;2.20;;;16.60;99.90;;;;;;4895597;29;20128;-78
2022/05/24 13:49:35;;;;;;;6.07;2.65;;;16.80;99.90;;;;;;4911565;29;20111;-77
2022/05/24 13:52:28;;;;;;;4.22;2.17;;;16.80;99.90;;;;;;4904588;29;20060;-78
2022/05/24 13:55:11;;;;;;;3.00;1.88;;;16.70;99.90;;;;;;4895231;29;20512;-80